ENAN/ANX METAR and TAF weather

Enter ICAO airport designator
Station Type Date Time Source
ENAN METAR 2024/04/15 09:50 UTC NOAA

ENAN 150950Z 34007KT 9999 FEW031 BKN038 02/M03 Q1007


Station Type Date Time Source
ENAN Decoded METAR 2024/04/15 09:50 UTC NOAA

Andoya, Norway (ENAN) 69-18N 016-09E 14M
Apr 15, 2024 - 05:50 AM EDT / 2024.04.15 0950 UTC
Wind: from the NNW (340 degrees) at 8 MPH (7 KT):0
Visibility: greater than 7 mile(s):0
Sky conditions: mostly cloudy
Temperature: 35 F (2 C)
Windchill: 28 F (-2 C):1
Dew Point: 26 F (-3 C)
Relative Humidity: 69%
Pressure (altimeter): 29.74 in. Hg (1007 hPa)
ob: ENAN 150950Z 34007KT 9999 FEW031 BKN038 02/M03 Q1007
cycle: 10

Station Type Date Time Source
ENAN TAF 2024/04/15 06:36 UTC NOAA